Time;durP1;ratioP1;P1;durP2;ratioP2;P2;SDS_P1;SDS_P2;PMS_P1;PMS_P2;Temp;Humidity;BMP_temperature;BMP_pressure;BME280_temperature;BME280_humidity;BME280_pressure;Samples;Min_cycle;Max_cycle;Signal;HPM_P1;HPM_P2
2022/06/17 00:00:37;;;;;;;31.88;11.57;;;;;;;;;;5065699;28;19959;-61
2022/06/17 00:03:10;;;;;;;28.67;10.93;;;;;;;;;;5057923;28;20095;-63
2022/06/17 00:05:37;;;;;;;27.88;9.45;;;;;;;;;;5059243;28;20044;-64
2022/06/17 00:08:03;;;;;;;30.15;10.40;;;;;;;;;;5062973;28;20293;-64
2022/06/17 00:10:36;;;;;;;33.50;11.38;;;;;;;;;;5061247;28;20072;-64
2022/06/17 00:13:02;;;;;;;37.03;12.50;;;;;;;;;;5061265;28;20102;-64
2022/06/17 00:15:29;;;;;;;36.20;13.43;;;;;;;;;;5061831;28;20067;-63
2022/06/17 00:18:02;;;;;;;39.85;15.68;;;;;;;;;;5062608;28;20080;-45
2022/06/17 00:20:30;;;;;;;45.50;15.30;;;;;;;;;;5065629;28;20044;-58
2022/06/17 00:22:56;;;;;;;38.55;13.15;;;;;;;;;;5064432;28;20481;-48
2022/06/17 00:25:33;;;;;;;26.63;11.32;;;;;;;;;;5060041;28;20595;-51
2022/06/17 00:28:00;;;;;;;38.70;12.85;;;;;;;;;;5060669;28;20382;-50
2022/06/17 00:30:28;;;;;;;44.70;14.40;;;;;;;;;;5064631;28;20554;-49
2022/06/17 00:33:02;;;;;;;48.72;16.02;;;;;;;;;;5065248;28;20330;-50
2022/06/17 00:35:31;;;;;;;47.27;17.40;;;;;;;;;;5049661;28;20101;-48
2022/06/17 00:37:58;;;;;;;51.08;17.08;;;;;;;;;;5064932;28;20076;-64
2022/06/17 00:40:34;;;;;;;44.90;17.42;;;;;;;;;;5061097;28;20127;-49
2022/06/17 00:43:03;;;;;;;50.40;16.67;;;;;;;;;;5058383;28;20658;-64
2022/06/17 00:45:32;;;;;;;41.88;16.83;;;;;;;;;;5064990;28;20660;-64
2022/06/17 00:48:07;;;;;;;44.58;17.33;;;;;;;;;;5063493;28;20045;-64
2022/06/17 00:50:45;;;;;;;42.88;16.80;;;;;;;;;;5064479;28;20110;-65
2022/06/17 00:53:28;;;;;;;47.30;18.30;;;;;;;;;;5064886;28;20080;-64
2022/06/17 00:56:01;;;;;;;50.55;17.85;;;;;;;;;;5062769;28;20087;-64
2022/06/17 00:58:52;;;;;;;49.85;17.17;;;;;;;;;;5060524;28;20139;-51
2022/06/17 01:01:19;;;;;;;43.35;17.05;;;;;;;;;;5065056;28;20044;-61
2022/06/17 01:03:53;;;;;;;47.25;16.42;;;;;;;;;;5060981;28;20527;-61
2022/06/17 01:06:22;;;;;;;45.35;15.38;;;;;;;;;;5065994;28;20154;-61
2022/06/17 01:11:45;;;;;;;42.47;16.75;;;;;;;;;;5058529;28;20068;-60
2022/06/17 01:14:14;;;;;;;47.85;16.17;;;;;;;;;;5058317;28;20045;-60
2022/06/17 01:16:41;;;;;;;49.50;16.63;;;;;;;;;;5061022;28;20041;-46
2022/06/17 01:19:17;;;;;;;38.78;16.00;;;;;;;;;;5066416;28;20044;-61
2022/06/17 01:21:49;;;;;;;46.22;16.13;;;;;;;;;;5062437;28;20579;-61
2022/06/17 01:24:23;;;;;;;52.45;17.52;;;;;;;;;;5065045;28;20067;-61
2022/06/17 01:26:49;;;;;;;44.40;15.88;;;;;;;;;;5062463;28;20636;-60
2022/06/17 01:29:16;;;;;;;34.88;14.00;;;;;;;;;;5060165;28;20664;-60
2022/06/17 01:31:51;;;;;;;29.63;11.95;;;;;;;;;;5060581;28;20105;-60
2022/06/17 01:34:18;;;;;;;28.75;12.55;;;;;;;;;;5064614;28;20076;-47
2022/06/17 01:36:45;;;;;;;40.33;13.65;;;;;;;;;;5066294;28;20062;-48
2022/06/17 01:39:18;;;;;;;33.03;12.43;;;;;;;;;;5052764;28;20543;-60
2022/06/17 01:41:46;;;;;;;40.78;16.77;;;;;;;;;;5058662;28;20048;-61
2022/06/17 01:44:12;;;;;;;30.13;15.52;;;;;;;;;;5059562;28;20049;-61
2022/06/17 01:46:48;;;;;;;34.08;15.90;;;;;;;;;;5061471;28;20059;-61
2022/06/17 01:49:18;;;;;;;34.42;15.00;;;;;;;;;;5061521;28;20381;-61
2022/06/17 01:51:47;;;;;;;50.13;16.48;;;;;;;;;;5060050;28;20052;-61
2022/06/17 01:54:23;;;;;;;35.03;15.05;;;;;;;;;;5060256;28;20056;-51
2022/06/17 01:56:51;;;;;;;55.08;17.83;;;;;;;;;;5063516;28;20041;-49
2022/06/17 01:59:20;;;;;;;45.25;18.33;;;;;;;;;;5057990;28;20151;-61
2022/06/17 02:01:55;;;;;;;56.88;18.52;;;;;;;;;;5061745;28;20083;-60
2022/06/17 02:04:24;;;;;;;51.03;19.15;;;;;;;;;;5061615;28;20404;-60
2022/06/17 02:06:54;;;;;;;37.20;16.73;;;;;;;;;;5064479;28;20553;-60
2022/06/17 02:09:27;;;;;;;46.30;17.25;;;;;;;;;;5061060;28;20079;-59
2022/06/17 02:11:54;;;;;;;44.03;18.42;;;;;;;;;;5062896;28;20583;-60
2022/06/17 02:14:22;;;;;;;59.67;18.08;;;;;;;;;;5047537;28;20500;-59
2022/06/17 02:16:56;;;;;;;49.45;19.90;;;;;;;;;;5063147;28;20067;-61
2022/06/17 02:19:24;;;;;;;36.08;17.40;;;;;;;;;;5061112;28;20066;-61
2022/06/17 02:21:54;;;;;;;31.95;15.45;;;;;;;;;;5063886;28;20134;-60
2022/06/17 02:24:27;;;;;;;40.50;17.00;;;;;;;;;;5060293;28;20048;-59
2022/06/17 02:26:54;;;;;;;50.03;17.13;;;;;;;;;;5060672;28;20068;-60
2022/06/17 02:29:22;;;;;;;42.50;17.63;;;;;;;;;;5064763;28;20101;-60
2022/06/17 02:31:55;;;;;;;42.97;19.02;;;;;;;;;;5059919;28;20083;-45
2022/06/17 02:34:21;;;;;;;55.28;20.90;;;;;;;;;;5064005;28;20520;-64
2022/06/17 02:36:51;;;;;;;194.77;21.60;;;;;;;;;;5059028;28;20509;-46
2022/06/17 02:39:26;;;;;;;32.50;16.33;;;;;;;;;;5060026;28;20127;-44
2022/06/17 02:41:52;;;;;;;41.13;15.98;;;;;;;;;;5060682;28;20490;-48
2022/06/17 02:44:27;;;;;;;37.15;16.45;;;;;;;;;;5062777;28;20040;-48
2022/06/17 02:47:00;;;;;;;49.55;20.23;;;;;;;;;;5061145;28;20577;-44
2022/06/17 02:49:36;;;;;;;51.20;21.00;;;;;;;;;;5061421;28;20045;-44
2022/06/17 02:52:22;;;;;;;48.50;21.92;;;;;;;;;;5044492;28;20064;-48
2022/06/17 02:54:58;;;;;;;61.92;25.10;;;;;;;;;;5061528;28;20076;-60
2022/06/17 02:57:31;;;;;;;55.17;20.70;;;;;;;;;;5057908;28;20561;-60
2022/06/17 03:00:05;;;;;;;39.10;19.05;;;;;;;;;;5060905;28;20183;-60
2022/06/17 03:02:39;;;;;;;37.33;19.00;;;;;;;;;;5062775;28;20117;-60
2022/06/17 03:05:22;;;;;;;46.30;18.38;;;;;;;;;;5060011;28;20138;-60
2022/06/17 03:07:56;;;;;;;48.63;17.58;;;;;;;;;;5063080;28;20126;-60
2022/06/17 03:10:34;;;;;;;40.88;16.52;;;;;;;;;;5062029;28;20103;-44
2022/06/17 03:13:10;;;;;;;38.22;15.13;;;;;;;;;;5064466;28;20083;-44
2022/06/17 03:15:38;;;;;;;39.45;14.70;;;;;;;;;;5063723;28;20081;-46
2022/06/17 03:18:05;;;;;;;30.60;13.95;;;;;;;;;;5063597;28;20064;-46
2022/06/17 03:20:41;;;;;;;38.50;12.43;;;;;;;;;;5063798;28;20799;-45
2022/06/17 03:23:12;;;;;;;28.98;10.98;;;;;;;;;;5041923;28;20553;-45
2022/06/17 03:25:50;;;;;;;24.80;8.90;;;;;;;;;;5067977;28;20408;-45
2022/06/17 03:28:32;;;;;;;18.58;8.82;;;;;;;;;;5062687;28;20044;-45
2022/06/17 03:31:05;;;;;;;18.38;8.20;;;;;;;;;;5062926;28;20080;-50
2022/06/17 03:33:57;;;;;;;25.73;9.27;;;;;;;;;;5069152;28;20492;-59
2022/06/17 03:36:35;;;;;;;24.90;9.90;;;;;;;;;;5071237;28;20067;-59
2022/06/17 03:39:16;;;;;;;29.92;10.30;;;;;;;;;;5062659;28;20079;-59
2022/06/17 03:41:51;;;;;;;31.02;10.55;;;;;;;;;;5064459;28;20132;-59
2022/06/17 03:44:28;;;;;;;35.50;11.50;;;;;;;;;;5062995;28;20049;-58
2022/06/17 03:46:57;;;;;;;42.22;11.68;;;;;;;;;;5047011;28;20044;-59
2022/06/17 03:49:26;;;;;;;35.20;11.13;;;;;;;;;;5068764;28;20067;-63
2022/06/17 03:52:08;;;;;;;35.63;11.38;;;;;;;;;;5063334;28;20083;-53
2022/06/17 03:54:42;;;;;;;25.08;10.30;;;;;;;;;;5061159;28;20082;-51
2022/06/17 03:57:16;;;;;;;23.08;9.10;;;;;;;;;;5060383;28;20423;-53
2022/06/17 03:59:45;;;;;;;20.92;8.77;;;;;;;;;;5067301;28;20052;-49
2022/06/17 04:02:13;;;;;;;24.50;7.55;;;;;;;;;;5068401;28;20045;-53
2022/06/17 04:04:50;;;;;;;20.55;6.80;;;;;;;;;;5068664;28;20084;-54
2022/06/17 04:07:17;;;;;;;22.58;7.30;;;;;;;;;;5070428;28;20459;-61
2022/06/17 04:09:45;;;;;;;17.53;5.73;;;;;;;;;;5068683;28;20040;-60
2022/06/17 04:12:20;;;;;;;22.33;5.88;;;;;;;;;;5065981;28;20036;-58
2022/06/17 04:15:07;;;;;;;17.33;5.90;;;;;;;;;;5062625;28;20500;-57
2022/06/17 04:17:42;;;;;;;15.82;5.55;;;;;;;;;;5062182;28;22570;-59
2022/06/17 04:20:28;;;;;;;22.02;6.10;;;;;;;;;;5062534;28;20041;-58
2022/06/17 04:23:16;;;;;;;19.75;6.18;;;;;;;;;;5063832;28;20104;-59
2022/06/17 04:25:49;;;;;;;19.50;5.32;;;;;;;;;;5061965;28;20079;-62
2022/06/17 04:28:25;;;;;;;18.30;5.40;;;;;;;;;;5061389;28;20036;-46
2022/06/17 04:31:06;;;;;;;19.17;6.38;;;;;;;;;;5062406;28;20052;-61
2022/06/17 04:33:48;;;;;;;16.85;5.30;;;;;;;;;;5064620;28;20048;-62
2022/06/17 04:36:21;;;;;;;20.52;6.07;;;;;;;;;;5066802;28;20096;-62
2022/06/17 04:38:58;;;;;;;19.20;5.68;;;;;;;;;;5064424;28;20075;-61
2022/06/17 04:41:27;;;;;;;21.95;6.38;;;;;;;;;;5063929;28;20072;-62
2022/06/17 04:44:03;;;;;;;19.98;6.05;;;;;;;;;;5066296;28;20531;-61
2022/06/17 04:46:32;;;;;;;19.38;6.40;;;;;;;;;;5060470;28;20036;-58
2022/06/17 04:49:00;;;;;;;23.10;6.35;;;;;;;;;;5049440;28;20052;-47
2022/06/17 04:51:40;;;;;;;21.13;6.32;;;;;;;;;;5063914;28;20076;-50
2022/06/17 04:54:07;;;;;;;27.58;7.25;;;;;;;;;;5050962;28;20087;-49
2022/06/17 04:56:45;;;;;;;21.88;7.25;;;;;;;;;;5061222;28;20137;-46
2022/06/17 04:59:28;;;;;;;20.50;6.68;;;;;;;;;;5067544;28;20087;-46
2022/06/17 05:02:05;;;;;;;32.13;7.32;;;;;;;;;;5063531;28;20083;-46
2022/06/17 05:04:32;;;;;;;29.25;6.85;;;;;;;;;;5064495;28;20040;-62
2022/06/17 05:06:59;;;;;;;32.03;7.47;;;;;;;;;;5066215;28;20056;-49
2022/06/17 05:09:42;;;;;;;27.00;7.22;;;;;;;;;;5064341;28;20040;-48
2022/06/17 05:12:16;;;;;;;24.48;8.18;;;;;;;;;;5065041;28;20055;-46
2022/06/17 05:14:54;;;;;;;26.05;8.30;;;;;;;;;;5066169;28;20048;-46
2022/06/17 05:17:21;;;;;;;22.00;6.75;;;;;;;;;;5066503;28;20088;-47
2022/06/17 05:19:50;;;;;;;27.35;7.28;;;;;;;;;;5064257;28;20143;-45
2022/06/17 05:22:26;;;;;;;23.80;7.78;;;;;;;;;;5062426;28;20509;-48
2022/06/17 05:24:53;;;;;;;25.45;7.32;;;;;;;;;;5063033;28;20048;-59
2022/06/17 05:27:19;;;;;;;33.15;7.55;;;;;;;;;;5066339;28;20076;-65
2022/06/17 05:29:52;;;;;;;22.75;6.78;;;;;;;;;;5067203;28;20511;-65
2022/06/17 05:32:19;;;;;;;18.70;6.13;;;;;;;;;;5067969;28;20079;-65
2022/06/17 05:34:47;;;;;;;25.00;7.38;;;;;;;;;;5062702;28;20503;-65
2022/06/17 05:37:20;;;;;;;30.80;8.20;;;;;;;;;;5064753;28;20496;-65
2022/06/17 05:39:46;;;;;;;26.50;7.93;;;;;;;;;;5065705;28;20098;-64
2022/06/17 05:42:13;;;;;;;24.65;7.63;;;;;;;;;;5064695;28;20574;-48
2022/06/17 05:44:46;;;;;;;26.92;7.95;;;;;;;;;;5063566;28;20630;-67
2022/06/17 05:47:13;;;;;;;19.65;6.28;;;;;;;;;;5063149;28;20555;-51
2022/06/17 05:49:40;;;;;;;28.77;8.15;;;;;;;;;;5059686;28;20076;-51
2022/06/17 05:52:20;;;;;;;36.83;9.25;;;;;;;;;;5065981;28;20072;-45
2022/06/17 05:54:46;;;;;;;32.30;7.90;;;;;;;;;;5061661;28;20079;-47
2022/06/17 05:57:13;;;;;;;25.17;7.35;;;;;;;;;;5048016;28;20052;-44
2022/06/17 05:59:46;;;;;;;30.70;7.72;;;;;;;;;;5049532;28;20076;-45
2022/06/17 06:02:13;;;;;;;24.65;7.75;;;;;;;;;;5062984;28;20044;-59
2022/06/17 06:04:40;;;;;;;28.70;7.43;;;;;;;;;;5058757;28;20441;-45
2022/06/17 06:07:13;;;;;;;25.55;6.90;;;;;;;;;;5061615;28;20068;-48
2022/06/17 06:09:40;;;;;;;26.63;7.03;;;;;;;;;;5064277;28;20087;-46
2022/06/17 06:12:07;;;;;;;23.52;6.85;;;;;;;;;;5063475;28;20901;-47
2022/06/17 06:14:41;;;;;;;25.60;7.40;;;;;;;;;;5060978;28;20044;-44
2022/06/17 06:17:08;;;;;;;29.10;7.20;;;;;;;;;;5064580;28;20538;-45
2022/06/17 06:19:34;;;;;;;27.70;7.68;;;;;;;;;;5059109;28;20099;-46
2022/06/17 06:22:07;;;;;;;23.05;6.20;;;;;;;;;;5066060;28;20091;-64
2022/06/17 06:24:34;;;;;;;27.38;7.57;;;;;;;;;;5060467;28;20125;-44
2022/06/17 06:27:00;;;;;;;35.20;7.25;;;;;;;;;;5066941;28;20102;-44
2022/06/17 06:29:33;;;;;;;20.80;6.28;;;;;;;;;;5060883;28;20040;-44
2022/06/17 06:32:00;;;;;;;20.88;6.90;;;;;;;;;;5062284;28;20079;-44
2022/06/17 06:34:26;;;;;;;24.37;6.67;;;;;;;;;;5059420;28;20048;-46
2022/06/17 06:36:59;;;;;;;16.67;6.07;;;;;;;;;;5066531;28;20083;-44
2022/06/17 06:39:26;;;;;;;19.67;6.15;;;;;;;;;;5063042;28;20070;-49
2022/06/17 06:41:52;;;;;;;16.50;5.55;;;;;;;;;;5061113;28;20126;-53
2022/06/17 06:44:25;;;;;;;26.50;6.35;;;;;;;;;;5060463;28;20500;-51
2022/06/17 06:46:52;;;;;;;23.00;7.05;;;;;;;;;;5063781;28;20056;-51
2022/06/17 06:49:18;;;;;;;20.30;6.35;;;;;;;;;;5063173;28;20044;-52
2022/06/17 06:51:57;;;;;;;20.02;6.35;;;;;;;;;;5065477;28;20056;-53
2022/06/17 06:54:31;;;;;;;20.55;5.78;;;;;;;;;;5068088;28;20084;-54
2022/06/17 06:57:06;;;;;;;22.67;6.28;;;;;;;;;;5064060;28;20113;-54
2022/06/17 06:59:52;;;;;;;23.10;5.68;;;;;;;;;;5069267;28;20048;-49
2022/06/17 07:02:25;;;;;;;22.10;6.00;;;;;;;;;;5067517;28;20036;-47
2022/06/17 07:04:52;;;;;;;26.70;6.13;;;;;;;;;;5064279;28;20406;-45
2022/06/17 07:07:18;;;;;;;22.35;5.53;;;;;;;;;;5069235;28;20589;-46
2022/06/17 07:09:51;;;;;;;19.95;5.55;;;;;;;;;;5067154;28;20091;-52
2022/06/17 07:12:18;;;;;;;22.38;6.18;;;;;;;;;;5063635;28;20048;-48
2022/06/17 07:14:44;;;;;;;20.13;5.07;;;;;;;;;;5063116;28;20080;-49
2022/06/17 07:17:17;;;;;;;20.20;5.38;;;;;;;;;;5067345;28;20087;-56
2022/06/17 07:19:44;;;;;;;16.70;5.20;;;;;;;;;;5064149;28;20068;-58
2022/06/17 07:22:10;;;;;;;16.95;5.30;;;;;;;;;;5069548;28;20629;-58
2022/06/17 07:24:44;;;;;;;19.73;5.55;;;;;;;;;;5064466;28;20492;-58
2022/06/17 07:27:10;;;;;;;17.35;5.68;;;;;;;;;;5065592;28;20151;-58
2022/06/17 07:29:37;;;;;;;26.13;5.60;;;;;;;;;;5064021;28;20036;-59
2022/06/17 07:32:10;;;;;;;15.05;4.60;;;;;;;;;;5067667;28;20048;-59
2022/06/17 07:34:40;;;;;;;14.95;4.28;;;;;;;;;;5062497;28;20044;-59
2022/06/17 07:40:04;;;;;;;15.70;4.93;;;;;;;;;;5066886;28;20040;-63
2022/06/17 07:42:39;;;;;;;11.77;4.20;;;;;;;;;;5070293;28;20067;-63
2022/06/17 07:45:16;;;;;;;15.45;4.13;;;;;;;;;;5068065;28;20506;-63
2022/06/17 07:47:44;;;;;;;15.77;3.63;;;;;;;;;;5064762;28;20114;-63
2022/06/17 07:50:10;;;;;;;;;;;;;;;;;;5070510;28;20040;-63
2022/06/17 07:52:49;;;;;;;25.83;3.67;;;;;;;;;;5044028;28;19927;-63
2022/06/17 07:55:16;;;;;;;13.40;2.78;;;;;;;;;;5040779;28;20123;-63
2022/06/17 07:57:43;;;;;;;11.00;2.95;;;;;;;;;;5042645;28;20697;-43
2022/06/17 08:00:22;;;;;;;7.72;3.08;;;;;;;;;;5047716;28;20144;-58
2022/06/17 08:02:48;;;;;;;7.15;2.75;;;;;;;;;;5047047;28;20049;-58
2022/06/17 08:05:15;;;;;;;8.67;2.43;;;;;;;;;;5045459;28;20041;-59
2022/06/17 08:07:50;;;;;;;7.95;2.40;;;;;;;;;;5041271;28;20464;-60
2022/06/17 08:10:18;;;;;;;11.52;2.55;;;;;;;;;;5048084;28;20134;-59
2022/06/17 08:12:44;;;;;;;14.10;3.08;;;;;;;;;;5044796;28;20069;-58
2022/06/17 08:15:18;;;;;;;3.75;2.00;;;;;;;;;;5042515;28;20076;-57
2022/06/17 08:17:44;;;;;;;6.78;2.00;;;;;;;;;;5027800;28;20037;-64
2022/06/17 08:20:19;;;;;;;11.25;2.60;;;;;;;;;;5043649;28;20053;-44
2022/06/17 08:22:52;;;;;;;8.10;2.45;;;;;;;;;;5043716;28;20457;-44
2022/06/17 08:25:19;;;;;;;6.23;1.87;;;;;;;;;;5043262;28;20088;-44
2022/06/17 08:27:47;;;;;;;6.70;1.92;;;;;;;;;;5040765;28;20053;-46
2022/06/17 08:30:22;;;;;;;5.70;2.40;;;;;;;;;;5049001;28;20501;-45
2022/06/17 08:32:51;;;;;;;8.55;2.00;;;;;;;;;;5041388;28;20665;-47
2022/06/17 08:35:19;;;;;;;7.53;2.10;;;;;;;;;;5041876;28;20077;-46
2022/06/17 08:37:57;;;;;;;8.65;2.40;;;;;;;;;;5043942;28;20050;-64
2022/06/17 08:40:36;;;;;;;7.32;2.17;;;;;;;;;;5044152;28;20064;-64
2022/06/17 08:43:28;;;;;;;4.35;2.00;;;;;;;;;;5045057;28;20519;-63
2022/06/17 08:46:13;;;;;;;7.47;1.80;;;;;;;;;;5043701;28;20053;-64
2022/06/17 08:48:58;;;;;;;5.95;1.70;;;;;;;;;;5023769;28;20049;-64
2022/06/17 08:51:50;;;;;;;8.18;2.20;;;;;;;;;;5052789;28;20060;-63
2022/06/17 08:54:48;;;;;;;7.28;1.27;;;;;;;;;;5064070;28;20131;-47
2022/06/17 08:57:21;;;;;;;4.15;1.35;;;;;;;;;;5063325;28;20139;-58
2022/06/17 09:00:03;;;;;;;9.05;1.10;;;;;;;;;;5064327;28;20068;-57
2022/06/17 09:02:29;;;;;;;5.55;1.42;;;;;;;;;;5062791;28;20068;-58
2022/06/17 09:05:05;;;;;;;4.55;1.20;;;;;;;;;;5062977;28;20052;-57
2022/06/17 09:07:38;;;;;;;2.63;1.23;;;;;;;;;;5062605;28;20062;-58
2022/06/17 09:10:18;;;;;;;2.28;1.02;;;;;;;;;;5064729;28;20415;-56
2022/06/17 09:12:59;;;;;;;4.18;1.13;;;;;;;;;;5064482;28;20643;-67
2022/06/17 09:15:44;;;;;;;2.40;1.08;;;;;;;;;;5063213;28;20080;-63
2022/06/17 09:18:10;;;;;;;;;;;;;;;;;;5065166;28;20122;-62
2022/06/17 09:20:44;;;;;;;4.05;1.10;;;;;;;;;;5064015;28;19951;-62
2022/06/17 09:23:13;;;;;;;5.38;1.25;;;;;;;;;;5049786;28;20052;-62
2022/06/17 09:25:44;;;;;;;1.80;0.82;;;;;;;;;;5064394;28;20396;-62
2022/06/17 09:28:20;;;;;;;3.75;1.58;;;;;;;;;;5064012;28;20037;-62
2022/06/17 09:30:49;;;;;;;2.83;1.20;;;;;;;;;;5061921;28;20098;-47
2022/06/17 09:33:22;;;;;;;2.60;1.00;;;;;;;;;;5066297;28;20074;-48
2022/06/17 09:36:07;;;;;;;2.17;0.70;;;;;;;;;;5062146;28;20585;-45
2022/06/17 09:38:37;;;;;;;1.38;0.77;;;;;;;;;;5058929;28;20500;-45
2022/06/17 09:41:19;;;;;;;1.88;0.80;;;;;;;;;;5064494;28;20044;-45
2022/06/17 09:43:57;;;;;;;5.20;1.10;;;;;;;;;;5061732;28;20538;-47
2022/06/17 09:46:30;;;;;;;2.33;1.08;;;;;;;;;;5063043;28;20494;-44
2022/06/17 09:49:23;;;;;;;2.25;1.15;;;;;;;;;;5068148;28;20114;-45
2022/06/17 09:52:13;;;;;;;3.28;1.35;;;;;;;;;;5065373;28;20052;-48
2022/06/17 09:54:54;;;;;;;5.75;1.20;;;;;;;;;;5061553;28;20118;-49
2022/06/17 09:57:30;;;;;;;3.47;1.10;;;;;;;;;;5058930;28;20135;-46
2022/06/17 09:59:59;;;;;;;2.75;1.30;;;;;;;;;;5062932;28;20088;-46
2022/06/17 10:02:30;;;;;;;6.15;1.40;;;;;;;;;;5063508;28;20044;-50
2022/06/17 10:05:12;;;;;;;3.08;1.10;;;;;;;;;;5061101;28;20080;-47
2022/06/17 10:07:47;;;;;;;2.55;1.25;;;;;;;;;;5063823;28;20055;-47
2022/06/17 10:10:21;;;;;;;3.72;1.05;;;;;;;;;;5067723;28;20491;-61
2022/06/17 10:13:02;;;;;;;4.03;1.23;;;;;;;;;;5059026;28;20084;-46
2022/06/17 10:18:31;;;;;;;2.72;1.27;;;;;;;;;;5062621;28;20045;-45
2022/06/17 10:18:42;;;;;;;3.47;1.33;;;;;;;;;;5061999;28;20052;-45
2022/06/17 10:21:24;;;;;;;3.33;1.20;;;;;;;;;;5070061;28;20052;-45
2022/06/17 10:24:03;;;;;;;3.75;1.27;;;;;;;;;;5065195;28;20126;-46
2022/06/17 10:26:46;;;;;;;3.47;1.30;;;;;;;;;;5060305;28;20083;-45
2022/06/17 10:29:15;;;;;;;2.30;1.10;;;;;;;;;;5048390;28;20081;-46
2022/06/17 10:31:44;;;;;;;2.30;1.63;;;;;;;;;;5067946;28;20603;-60
2022/06/17 10:34:11;;;;;;;2.85;1.67;;;;;;;;;;5066191;28;20041;-59
2022/06/17 10:36:40;;;;;;;11.68;2.10;;;;;;;;;;5064753;28;20049;-60
2022/06/17 10:39:14;;;;;;;5.20;2.17;;;;;;;;;;5069553;28;20080;-59
2022/06/17 10:41:41;;;;;;;5.97;2.15;;;;;;;;;;5063916;28;20044;-60
2022/06/17 10:44:15;;;;;;;10.32;2.42;;;;;;;;;;5069510;28;20048;-59
2022/06/17 10:47:14;;;;;;;5.03;1.60;;;;;;;;;;5065238;28;20056;-60
2022/06/17 10:49:51;;;;;;;5.93;1.83;;;;;;;;;;5067367;28;20040;-52
2022/06/17 10:52:37;;;;;;;5.05;1.90;;;;;;;;;;5067465;28;20163;-60
2022/06/17 10:55:04;;;;;;;8.30;1.88;;;;;;;;;;5065747;28;20077;-60
2022/06/17 10:57:37;;;;;;;5.07;1.60;;;;;;;;;;5067035;28;20087;-60
2022/06/17 11:00:20;;;;;;;3.08;1.85;;;;;;;;;;5068503;28;20047;-60
2022/06/17 11:02:53;;;;;;;4.63;1.88;;;;;;;;;;5066178;28;20466;-60
2022/06/17 11:05:36;;;;;;;8.70;2.40;;;;;;;;;;5067719;28;20127;-60
2022/06/17 11:08:20;;;;;;;8.43;1.83;;;;;;;;;;5064361;28;20302;-44
2022/06/17 11:10:51;;;;;;;6.25;2.00;;;;;;;;;;5066906;28;20314;-51
2022/06/17 11:13:24;;;;;;;6.82;2.00;;;;;;;;;;5067128;28;20672;-56
2022/06/17 11:15:53;;;;;;;4.63;2.00;;;;;;;;;;5066865;28;20090;-55
2022/06/17 11:18:22;;;;;;;6.38;2.47;;;;;;;;;;5066742;28;20091;-52
2022/06/17 11:20:58;;;;;;;6.22;2.10;;;;;;;;;;5066575;28;20048;-56
2022/06/17 11:23:36;;;;;;;5.85;2.08;;;;;;;;;;5067053;28;20037;-54
2022/06/17 11:26:11;;;;;;;5.47;2.10;;;;;;;;;;5062731;28;20079;-59
2022/06/17 11:28:40;;;;;;;5.40;1.88;;;;;;;;;;5045202;28;20120;-48
2022/06/17 11:31:11;;;;;;;6.95;2.75;;;;;;;;;;5066301;28;20076;-45
2022/06/17 11:33:54;;;;;;;6.82;1.70;;;;;;;;;;5063251;28;20076;-44
2022/06/17 11:36:25;;;;;;;3.78;1.83;;;;;;;;;;5066286;28;20044;-46
2022/06/17 11:39:18;;;;;;;11.00;2.20;;;;;;;;;;5057926;28;20120;-44
2022/06/17 11:41:45;;;;;;;5.13;1.98;;;;;;;;;;5063438;28;20086;-45
2022/06/17 11:44:20;;;;;;;6.18;1.90;;;;;;;;;;5065096;28;20094;-52
2022/06/17 11:46:57;;;;;;;5.00;1.90;;;;;;;;;;5065933;28;20670;-51
2022/06/17 11:49:35;;;;;;;4.05;1.90;;;;;;;;;;5065040;28;20515;-54
2022/06/17 11:52:13;;;;;;;4.47;1.98;;;;;;;;;;5061081;28;20195;-52
2022/06/17 11:54:54;;;;;;;4.88;2.20;;;;;;;;;;5064925;28;20791;-52
2022/06/17 11:57:24;;;;;;;9.02;2.53;;;;;;;;;;5067535;28;20083;-54
2022/06/17 11:59:59;;;;;;;4.73;1.67;;;;;;;;;;5061799;28;20053;-49
2022/06/17 12:02:26;;;;;;;3.67;1.70;;;;;;;;;;5066139;28;20041;-54
2022/06/17 12:04:54;;;;;;;;;;;;;;;;;;5066278;28;20053;-60
2022/06/17 12:07:49;;;;;;;5.47;2.03;;;;;;;;;;5064210;28;19924;-61
2022/06/17 12:10:34;;;;;;;3.63;1.88;;;;;;;;;;5061729;28;20109;-61
2022/06/17 12:13:17;;;;;;;6.35;1.52;;;;;;;;;;5064450;28;20063;-60
2022/06/17 12:15:44;;;;;;;4.97;1.50;;;;;;;;;;5068516;28;20707;-60
2022/06/17 12:18:22;;;;;;;5.63;1.52;;;;;;;;;;5068415;28;20044;-60
2022/06/17 12:20:49;;;;;;;6.05;2.10;;;;;;;;;;5064822;28;20084;-60
2022/06/17 12:23:27;;;;;;;9.18;2.00;;;;;;;;;;5064606;28;20071;-51
2022/06/17 12:26:04;;;;;;;3.58;2.05;;;;;;;;;;5065507;28;20041;-49
2022/06/17 12:28:49;;;;;;;4.32;2.00;;;;;;;;;;5065213;28;20492;-50
2022/06/17 12:31:30;;;;;;;5.30;2.17;;;;;;;;;;5063605;28;20037;-47
2022/06/17 12:34:15;;;;;;;9.15;2.13;;;;;;;;;;5064332;28;20508;-51
2022/06/17 12:36:53;;;;;;;5.88;2.25;;;;;;;;;;5064878;28;20052;-53
2022/06/17 12:39:52;;;;;;;6.15;2.00;;;;;;;;;;5067868;28;20328;-50
2022/06/17 12:42:32;;;;;;;6.53;2.28;;;;;;;;;;5035432;28;20465;-72
2022/06/17 12:45:07;;;;;;;7.28;2.17;;;;;;;;;;5047028;28;20083;-61
2022/06/17 12:47:40;;;;;;;6.40;1.80;;;;;;;;;;5066282;28;20074;-61
2022/06/17 12:53:31;;;;;;;3.25;2.05;;;;;;;;;;5061122;28;20622;-61
2022/06/17 12:55:57;;;;;;;5.22;1.83;;;;;;;;;;5063288;28;20040;-61
2022/06/17 12:58:50;;;;;;;6.80;2.05;;;;;;;;;;5066186;28;20040;-61
2022/06/17 13:01:37;;;;;;;3.67;1.90;;;;;;;;;;5064398;28;20110;-48
2022/06/17 13:04:33;;;;;;;5.90;2.05;;;;;;;;;;5054902;28;20098;-61
2022/06/17 13:07:19;;;;;;;9.75;2.45;;;;;;;;;;5062561;28;20040;-61
2022/06/17 13:10:39;;;;;;;6.40;2.05;;;;;;;;;;5065523;28;20072;-61
2022/06/17 13:12:51;;;;;;;5.78;1.92;;;;;;;;;;5045470;28;20124;-60
2022/06/17 13:15:28;;;;;;;8.00;2.55;;;;;;;;;;5066886;28;20109;-61
2022/06/17 13:18:00;;;;;;;7.55;2.25;;;;;;;;;;5061585;28;20072;-61
2022/06/17 13:20:42;;;;;;;4.05;2.15;;;;;;;;;;5063454;28;20075;-61
2022/06/17 13:23:15;;;;;;;7.30;2.42;;;;;;;;;;5065371;28;20109;-48
2022/06/17 13:25:52;;;;;;;8.50;2.50;;;;;;;;;;5061160;28;20044;-51
2022/06/17 13:28:27;;;;;;;9.93;2.67;;;;;;;;;;5064611;28;20064;-51
2022/06/17 13:31:04;;;;;;;6.32;1.80;;;;;;;;;;5064796;28;20044;-52
2022/06/17 13:33:39;;;;;;;6.65;2.10;;;;;;;;;;5064618;28;20049;-54
2022/06/17 13:36:14;;;;;;;6.38;2.20;;;;;;;;;;5062056;28;20594;-55
2022/06/17 13:38:59;;;;;;;6.82;2.28;;;;;;;;;;5061300;28;20036;-60
2022/06/17 13:41:51;;;;;;;5.20;2.70;;;;;;;;;;5059076;28;20036;-53
2022/06/17 13:44:36;;;;;;;8.43;2.25;;;;;;;;;;5062640;28;20075;-58
2022/06/17 13:47:19;;;;;;;7.70;2.22;;;;;;;;;;5059168;28;20175;-57
2022/06/17 13:49:55;;;;;;;5.95;2.10;;;;;;;;;;5064347;28;20045;-58
2022/06/17 13:52:44;;;;;;;9.50;2.63;;;;;;;;;;5061404;28;20044;-58
2022/06/17 13:55:20;;;;;;;8.68;2.65;;;;;;;;;;5062328;28;20044;-56
2022/06/17 13:58:17;;;;;;;9.00;2.30;;;;;;;;;;5063827;28;20416;-57
2022/06/17 14:00:45;;;;;;;6.97;2.30;;;;;;;;;;5055906;28;20040;-49
2022/06/17 14:03:54;;;;;;;8.30;2.63;;;;;;;;;;5050997;28;20050;-51
2022/06/17 14:06:21;;;;;;;7.53;2.53;;;;;;;;;;5065663;28;20079;-52
2022/06/17 14:08:58;;;;;;;7.40;2.45;;;;;;;;;;5061978;28;20135;-50
2022/06/17 14:11:46;;;;;;;9.90;2.63;;;;;;;;;;5063763;28;20919;-51
2022/06/17 14:14:19;;;;;;;8.75;2.97;;;;;;;;;;5064022;28;20071;-50
2022/06/17 14:17:01;;;;;;;12.07;4.00;;;;;;;;;;5062973;28;20087;-58
2022/06/17 14:19:34;;;;;;;;;;;;;;;;;;5061282;28;20141;-61
2022/06/17 14:22:13;;;;;;;9.23;3.50;;;;;;;;;;5063024;28;20055;-46
2022/06/17 14:24:46;;;;;;;11.35;3.50;;;;;;;;;;5061952;28;20126;-45
2022/06/17 14:27:13;;;;;;;7.90;3.05;;;;;;;;;;5063186;28;20530;-47
2022/06/17 14:29:40;;;;;;;8.25;3.35;;;;;;;;;;5064880;28;20051;-45
2022/06/17 14:32:17;;;;;;;9.60;3.13;;;;;;;;;;5060175;28;20048;-45
2022/06/17 14:35:04;;;;;;;6.60;3.20;;;;;;;;;;5061386;28;20044;-47
2022/06/17 14:37:40;;;;;;;7.70;2.95;;;;;;;;;;5066087;28;20049;-58
2022/06/17 14:40:15;;;;;;;6.75;2.72;;;;;;;;;;5066302;28;20553;-58
2022/06/17 14:42:54;;;;;;;6.78;2.75;;;;;;;;;;5060801;28;20569;-57
2022/06/17 14:45:30;;;;;;;10.95;3.08;;;;;;;;;;5060432;28;20133;-57
2022/06/17 14:48:07;;;;;;;9.55;3.00;;;;;;;;;;5057842;28;20048;-60
2022/06/17 14:50:39;;;;;;;6.30;2.95;;;;;;;;;;5064957;28;20098;-57
2022/06/17 14:53:19;;;;;;;9.30;3.05;;;;;;;;;;5058044;28;20068;-58
2022/06/17 14:55:57;;;;;;;10.60;3.17;;;;;;;;;;5063892;28;20098;-62
2022/06/17 14:58:40;;;;;;;12.40;2.78;;;;;;;;;;5065374;28;20056;-52
2022/06/17 15:01:15;;;;;;;10.45;3.38;;;;;;;;;;5060672;28;20167;-50
2022/06/17 15:03:53;;;;;;;9.48;3.20;;;;;;;;;;5056171;28;20052;-49
2022/06/17 15:06:22;;;;;;;7.15;3.05;;;;;;;;;;5062420;28;20451;-50
2022/06/17 15:08:56;;;;;;;11.15;2.95;;;;;;;;;;5064360;28;20052;-47
2022/06/17 15:11:25;;;;;;;8.30;3.58;;;;;;;;;;5058468;28;20541;-47
2022/06/17 15:14:10;;;;;;;6.88;3.30;;;;;;;;;;5065797;28;20499;-57
2022/06/17 15:16:58;;;;;;;11.00;3.50;;;;;;;;;;5067467;28;20102;-52
2022/06/17 15:19:31;;;;;;;10.15;3.47;;;;;;;;;;5068837;28;20140;-62
2022/06/17 15:22:14;;;;;;;9.95;3.88;;;;;;;;;;5067141;28;20157;-62
2022/06/17 15:24:56;;;;;;;11.02;3.53;;;;;;;;;;5068810;28;20040;-61